sensor_id;sensor_type;location;lat;lon;timestamp;pressure;altitude;pressure_sealevel;temperature;humidity
13434;BME280;6789;47.678;9.158;2022-09-09T00:00:17;96567.41;;;14.95;100.00
13434;BME280;6789;47.678;9.158;2022-09-09T00:06:04;96573.41;;;14.85;100.00
13434;BME280;6789;47.678;9.158;2022-09-09T00:11:25;96579.72;;;14.79;100.00
13434;BME280;6789;47.678;9.158;2022-09-09T00:16:39;96578.91;;;14.74;100.00
13434;BME280;6789;47.678;9.158;2022-09-09T00:22:17;96571.25;;;14.72;100.00
13434;BME280;6789;47.678;9.158;2022-09-09T00:27:46;96572.78;;;14.68;100.00
13434;BME280;6789;47.678;9.158;2022-09-09T00:33:03;96577.97;;;14.53;100.00
13434;BME280;6789;47.678;9.158;2022-09-09T00:38:31;96574.72;;;14.46;100.00
13434;BME280;6789;47.678;9.158;2022-09-09T00:43:41;96581.38;;;14.54;100.00
13434;BME280;6789;47.678;9.158;2022-09-09T01:00:51;96561.72;;;14.40;100.00
13434;BME280;6789;47.678;9.158;2022-09-09T01:06:30;96565.19;;;14.40;100.00
13434;BME280;6789;47.678;9.158;2022-09-09T01:12:09;96561.78;;;14.45;100.00
13434;BME280;6789;47.678;9.158;2022-09-09T01:17:28;96559.66;;;14.42;100.00
13434;BME280;6789;47.678;9.158;2022-09-09T01:28:34;96548.09;;;14.48;100.00
13434;BME280;6789;47.678;9.158;2022-09-09T01:33:43;96538.28;;;14.43;100.00
13434;BME280;6789;47.678;9.158;2022-09-09T01:38:36;96533.81;;;14.44;100.00
13434;BME280;6789;47.678;9.158;2022-09-09T01:43:29;96551.00;;;14.46;100.00
13434;BME280;6789;47.678;9.158;2022-09-09T01:49:00;96541.44;;;14.40;100.00
13434;BME280;6789;47.678;9.158;2022-09-09T01:54:07;96540.31;;;14.31;100.00
13434;BME280;6789;47.678;9.158;2022-09-09T01:59:22;96543.53;;;14.38;100.00
13434;BME280;6789;47.678;9.158;2022-09-09T02:04:45;96550.72;;;14.48;100.00
13434;BME280;6789;47.678;9.158;2022-09-09T02:10:08;96556.22;;;14.41;100.00
13434;BME280;6789;47.678;9.158;2022-09-09T02:21:15;96566.78;;;14.41;100.00
13434;BME280;6789;47.678;9.158;2022-09-09T02:26:11;96571.66;;;14.28;100.00
13434;BME280;6789;47.678;9.158;2022-09-09T02:31:22;96574.84;;;14.30;100.00
13434;BME280;6789;47.678;9.158;2022-09-09T02:36:33;96575.16;;;14.33;100.00
13434;BME280;6789;47.678;9.158;2022-09-09T02:41:42;96584.03;;;14.54;100.00
13434;BME280;6789;47.678;9.158;2022-09-09T02:47:16;96585.34;;;14.56;100.00
13434;BME280;6789;47.678;9.158;2022-09-09T02:52:42;96589.66;;;14.67;100.00
13434;BME280;6789;47.678;9.158;2022-09-09T02:57:54;96588.78;;;14.88;100.00
13434;BME280;6789;47.678;9.158;2022-09-09T03:03:03;96593.47;;;14.81;100.00
13434;BME280;6789;47.678;9.158;2022-09-09T03:07:55;96585.38;;;14.93;100.00
13434;BME280;6789;47.678;9.158;2022-09-09T03:12:48;96592.13;;;14.79;100.00
13434;BME280;6789;47.678;9.158;2022-09-09T03:17:39;96601.09;;;14.78;100.00
13434;BME280;6789;47.678;9.158;2022-09-09T03:22:32;96597.47;;;14.89;100.00
13434;BME280;6789;47.678;9.158;2022-09-09T03:27:23;96594.97;;;15.08;100.00
13434;BME280;6789;47.678;9.158;2022-09-09T03:32:15;96611.53;;;14.99;100.00
13434;BME280;6789;47.678;9.158;2022-09-09T03:37:09;96600.50;;;15.02;100.00
13434;BME280;6789;47.678;9.158;2022-09-09T03:42:00;96611.19;;;15.22;100.00
13434;BME280;6789;47.678;9.158;2022-09-09T03:46:55;96605.44;;;15.30;100.00
13434;BME280;6789;47.678;9.158;2022-09-09T03:51:47;96600.13;;;15.25;100.00
13434;BME280;6789;47.678;9.158;2022-09-09T03:56:38;96597.91;;;15.17;100.00
13434;BME280;6789;47.678;9.158;2022-09-09T04:01:33;96591.84;;;15.16;100.00
13434;BME280;6789;47.678;9.158;2022-09-09T04:06:39;96595.34;;;15.22;100.00
13434;BME280;6789;47.678;9.158;2022-09-09T04:11:45;96593.72;;;15.21;100.00
13434;BME280;6789;47.678;9.158;2022-09-09T04:16:52;96594.34;;;15.33;100.00
13434;BME280;6789;47.678;9.158;2022-09-09T04:21:58;96600.72;;;15.37;100.00
13434;BME280;6789;47.678;9.158;2022-09-09T04:27:04;96600.53;;;15.53;100.00
13434;BME280;6789;47.678;9.158;2022-09-09T04:32:10;96593.66;;;15.57;100.00
13434;BME280;6789;47.678;9.158;2022-09-09T04:37:17;96594.50;;;15.63;100.00
13434;BME280;6789;47.678;9.158;2022-09-09T04:42:23;96600.91;;;15.81;100.00
13434;BME280;6789;47.678;9.158;2022-09-09T04:47:29;96596.19;;;15.93;100.00
13434;BME280;6789;47.678;9.158;2022-09-09T04:52:35;96593.81;;;15.92;100.00
13434;BME280;6789;47.678;9.158;2022-09-09T04:57:41;96602.53;;;15.97;100.00
13434;BME280;6789;47.678;9.158;2022-09-09T05:08:05;96587.69;;;15.86;100.00
13434;BME280;6789;47.678;9.158;2022-09-09T05:13:16;96578.44;;;15.89;100.00
13434;BME280;6789;47.678;9.158;2022-09-09T05:19:09;96591.94;;;15.82;100.00
13434;BME280;6789;47.678;9.158;2022-09-09T05:24:33;96597.44;;;15.71;100.00
13434;BME280;6789;47.678;9.158;2022-09-09T05:29:40;96595.31;;;15.73;100.00
13434;BME280;6789;47.678;9.158;2022-09-09T05:35:20;96592.91;;;15.67;100.00
13434;BME280;6789;47.678;9.158;2022-09-09T05:40:28;96592.97;;;15.76;100.00
13434;BME280;6789;47.678;9.158;2022-09-09T05:51:32;96617.06;;;15.95;100.00
13434;BME280;6789;47.678;9.158;2022-09-09T05:57:10;96624.44;;;15.83;100.00
13434;BME280;6789;47.678;9.158;2022-09-09T06:02:31;96625.28;;;15.93;100.00
13434;BME280;6789;47.678;9.158;2022-09-09T06:14:43;96627.44;;;16.16;100.00
13434;BME280;6789;47.678;9.158;2022-09-09T06:20:00;96619.00;;;16.24;100.00
13434;BME280;6789;47.678;9.158;2022-09-09T06:25:13;96625.91;;;16.25;100.00
13434;BME280;6789;47.678;9.158;2022-09-09T06:30:19;96626.47;;;16.37;100.00
13434;BME280;6789;47.678;9.158;2022-09-09T06:35:25;96628.88;;;16.48;100.00
13434;BME280;6789;47.678;9.158;2022-09-09T06:40:31;96628.09;;;16.63;100.00
13434;BME280;6789;47.678;9.158;2022-09-09T06:45:41;96627.03;;;16.79;100.00
13434;BME280;6789;47.678;9.158;2022-09-09T06:50:47;96624.38;;;16.94;100.00
13434;BME280;6789;47.678;9.158;2022-09-09T06:55:58;96626.75;;;17.15;99.37
13434;BME280;6789;47.678;9.158;2022-09-09T07:01:06;96619.59;;;17.35;98.00
13434;BME280;6789;47.678;9.158;2022-09-09T07:07:09;96609.44;;;17.52;96.88
13434;BME280;6789;47.678;9.158;2022-09-09T07:12:18;96616.34;;;17.63;95.91
13434;BME280;6789;47.678;9.158;2022-09-09T07:17:38;96617.31;;;17.82;93.95
13434;BME280;6789;47.678;9.158;2022-09-09T07:23:30;96605.53;;;18.03;92.35
13434;BME280;6789;47.678;9.158;2022-09-09T07:28:40;96615.34;;;18.07;91.37
13434;BME280;6789;47.678;9.158;2022-09-09T07:34:06;96608.28;;;18.36;90.48
13434;BME280;6789;47.678;9.158;2022-09-09T07:39:43;96615.16;;;18.42;89.85
13434;BME280;6789;47.678;9.158;2022-09-09T07:44:51;96617.06;;;18.37;89.75
13434;BME280;6789;47.678;9.158;2022-09-09T07:50:00;96620.81;;;18.31;90.68
13434;BME280;6789;47.678;9.158;2022-09-09T07:55:07;96625.75;;;18.42;91.14
13434;BME280;6789;47.678;9.158;2022-09-09T08:00:17;96612.97;;;18.87;89.82
13434;BME280;6789;47.678;9.158;2022-09-09T08:06:00;96615.47;;;19.02;87.70
13434;BME280;6789;47.678;9.158;2022-09-09T08:11:11;96626.69;;;19.56;86.21
13434;BME280;6789;47.678;9.158;2022-09-09T08:16:23;96631.56;;;19.96;82.86
13434;BME280;6789;47.678;9.158;2022-09-09T08:21:33;96641.00;;;20.48;79.15
13434;BME280;6789;47.678;9.158;2022-09-09T08:26:42;96648.41;;;20.70;77.80
13434;BME280;6789;47.678;9.158;2022-09-09T08:31:53;96645.66;;;20.93;78.30
13434;BME280;6789;47.678;9.158;2022-09-09T08:37:12;96648.69;;;21.50;76.58
13434;BME280;6789;47.678;9.158;2022-09-09T08:42:41;96636.38;;;21.81;72.85
13434;BME280;6789;47.678;9.158;2022-09-09T08:48:17;96648.59;;;21.42;73.32
13434;BME280;6789;47.678;9.158;2022-09-09T08:53:56;96645.31;;;20.81;77.32
13434;BME280;6789;47.678;9.158;2022-09-09T08:59:34;96647.38;;;20.66;77.99
13434;BME280;6789;47.678;9.158;2022-09-09T09:10:53;96649.88;;;20.81;70.75
13434;BME280;6789;47.678;9.158;2022-09-09T09:16:40;96649.47;;;20.69;73.39
13434;BME280;6789;47.678;9.158;2022-09-09T09:22:21;96647.47;;;20.61;72.82
13434;BME280;6789;47.678;9.158;2022-09-09T09:27:35;96648.34;;;20.75;72.41
13434;BME280;6789;47.678;9.158;2022-09-09T09:33:16;96648.06;;;20.76;71.53
13434;BME280;6789;47.678;9.158;2022-09-09T09:38:29;96657.13;;;20.75;72.50
13434;BME280;6789;47.678;9.158;2022-09-09T09:43:58;96652.09;;;20.55;72.94
13434;BME280;6789;47.678;9.158;2022-09-09T09:49:38;96655.16;;;20.62;69.46
13434;BME280;6789;47.678;9.158;2022-09-09T09:55:35;96651.63;;;21.03;70.78
13434;BME280;6789;47.678;9.158;2022-09-09T10:01:18;96643.03;;;21.38;69.05
13434;BME280;6789;47.678;9.158;2022-09-09T10:06:47;96649.06;;;21.44;69.49
13434;BME280;6789;47.678;9.158;2022-09-09T10:36:46;96634.09;;;21.74;62.30
13434;BME280;6789;47.678;9.158;2022-09-09T10:42:38;96627.66;;;21.75;61.23
13434;BME280;6789;47.678;9.158;2022-09-09T11:06:32;96650.72;;;21.98;59.00
13434;BME280;6789;47.678;9.158;2022-09-09T11:17:19;96646.91;;;20.82;63.82
13434;BME280;6789;47.678;9.158;2022-09-09T11:23:15;96658.63;;;20.63;64.29
13434;BME280;6789;47.678;9.158;2022-09-09T11:46:52;96639.78;;;21.41;58.88
13434;BME280;6789;47.678;9.158;2022-09-09T11:53:19;96626.19;;;21.69;55.79
13434;BME280;6789;47.678;9.158;2022-09-09T11:58:55;96627.56;;;21.67;54.17
13434;BME280;6789;47.678;9.158;2022-09-09T12:09:58;96630.34;;;21.62;56.82
13434;BME280;6789;47.678;9.158;2022-09-09T12:15:25;96625.78;;;21.62;56.91
13434;BME280;6789;47.678;9.158;2022-09-09T12:21:34;96619.22;;;21.42;57.31
13434;BME280;6789;47.678;9.158;2022-09-09T12:27:25;96609.72;;;21.36;58.73
13434;BME280;6789;47.678;9.158;2022-09-09T12:38:06;96593.56;;;21.72;57.73
13434;BME280;6789;47.678;9.158;2022-09-09T12:43:23;96595.81;;;21.92;57.45
13434;BME280;6789;47.678;9.158;2022-09-09T12:48:41;96595.91;;;21.87;56.31
13434;BME280;6789;47.678;9.158;2022-09-09T12:53:51;96580.63;;;21.79;57.40
13434;BME280;6789;47.678;9.158;2022-09-09T12:59:04;96584.91;;;22.16;58.60
13434;BME280;6789;47.678;9.158;2022-09-09T13:04:22;96567.13;;;22.46;56.12
13434;BME280;6789;47.678;9.158;2022-09-09T13:09:28;96566.28;;;22.37;58.38
13434;BME280;6789;47.678;9.158;2022-09-09T13:14:44;96552.38;;;22.71;56.62
13434;BME280;6789;47.678;9.158;2022-09-09T13:20:18;96546.31;;;22.79;55.44
13434;BME280;6789;47.678;9.158;2022-09-09T13:25:28;96531.06;;;22.88;54.73
13434;BME280;6789;47.678;9.158;2022-09-09T13:36:30;96530.31;;;22.87;52.81
13434;BME280;6789;47.678;9.158;2022-09-09T13:41:43;96521.50;;;22.95;53.39
13434;BME280;6789;47.678;9.158;2022-09-09T13:47:27;96510.78;;;23.08;52.77
13434;BME280;6789;47.678;9.158;2022-09-09T13:52:35;96512.84;;;23.20;53.18
13434;BME280;6789;47.678;9.158;2022-09-09T13:57:55;96516.16;;;23.17;51.60
13434;BME280;6789;47.678;9.158;2022-09-09T14:03:10;96508.44;;;23.15;52.45
13434;BME280;6789;47.678;9.158;2022-09-09T14:08:25;96509.91;;;22.99;53.09
13434;BME280;6789;47.678;9.158;2022-09-09T14:13:33;96504.19;;;23.14;54.33
13434;BME280;6789;47.678;9.158;2022-09-09T14:18:59;96501.66;;;23.09;52.70
13434;BME280;6789;47.678;9.158;2022-09-09T14:24:07;96498.88;;;23.01;52.06
13434;BME280;6789;47.678;9.158;2022-09-09T14:29:14;96498.97;;;22.88;52.70
13434;BME280;6789;47.678;9.158;2022-09-09T14:34:33;96499.53;;;22.76;53.79
13434;BME280;6789;47.678;9.158;2022-09-09T14:39:39;96500.25;;;22.90;54.73
13434;BME280;6789;47.678;9.158;2022-09-09T14:44:45;96498.81;;;22.05;57.68
13434;BME280;6789;47.678;9.158;2022-09-09T14:49:50;96506.13;;;21.78;58.79
13434;BME280;6789;47.678;9.158;2022-09-09T14:54:57;96506.47;;;21.98;58.79
13434;BME280;6789;47.678;9.158;2022-09-09T15:00:05;96517.59;;;21.78;60.31
13434;BME280;6789;47.678;9.158;2022-09-09T15:05:13;96514.38;;;22.03;60.08
13434;BME280;6789;47.678;9.158;2022-09-09T15:10:21;96512.22;;;22.27;57.34
13434;BME280;6789;47.678;9.158;2022-09-09T15:15:28;96514.28;;;22.08;64.66
13434;BME280;6789;47.678;9.158;2022-09-09T15:20:51;96515.44;;;22.29;64.97
13434;BME280;6789;47.678;9.158;2022-09-09T15:25:57;96516.94;;;22.65;58.26
13434;BME280;6789;47.678;9.158;2022-09-09T15:41:39;96527.59;;;22.35;50.15
13434;BME280;6789;47.678;9.158;2022-09-09T15:47:11;96526.13;;;22.29;49.74
13434;BME280;6789;47.678;9.158;2022-09-09T15:52:18;96523.19;;;22.39;50.59
13434;BME280;6789;47.678;9.158;2022-09-09T15:57:25;96529.88;;;22.50;48.61
13434;BME280;6789;47.678;9.158;2022-09-09T16:02:36;96529.94;;;22.23;47.34
13434;BME280;6789;47.678;9.158;2022-09-09T16:07:52;96531.28;;;22.12;47.26
13434;BME280;6789;47.678;9.158;2022-09-09T16:13:18;96534.75;;;21.99;46.90
13434;BME280;6789;47.678;9.158;2022-09-09T16:18:40;96535.09;;;21.84;47.43
13434;BME280;6789;47.678;9.158;2022-09-09T16:23:52;96536.97;;;21.84;49.99
13434;BME280;6789;47.678;9.158;2022-09-09T16:29:05;96533.44;;;21.75;48.81
13434;BME280;6789;47.678;9.158;2022-09-09T16:34:15;96536.41;;;21.60;49.63
13434;BME280;6789;47.678;9.158;2022-09-09T16:39:23;96543.88;;;21.45;50.31
13434;BME280;6789;47.678;9.158;2022-09-09T16:44:31;96544.19;;;21.43;51.10
13434;BME280;6789;47.678;9.158;2022-09-09T16:49:36;96547.16;;;21.28;51.74
13434;BME280;6789;47.678;9.158;2022-09-09T16:54:42;96545.97;;;21.21;52.83
13434;BME280;6789;47.678;9.158;2022-09-09T16:59:49;96550.78;;;21.19;53.26
13434;BME280;6789;47.678;9.158;2022-09-09T17:05:06;96555.00;;;20.93;53.96
13434;BME280;6789;47.678;9.158;2022-09-09T17:10:12;96559.22;;;20.62;54.75
13434;BME280;6789;47.678;9.158;2022-09-09T17:15:19;96565.59;;;20.29;56.33
13434;BME280;6789;47.678;9.158;2022-09-09T17:20:27;96571.78;;;20.07;58.33
13434;BME280;6789;47.678;9.158;2022-09-09T17:25:33;96578.97;;;19.83;59.28
13434;BME280;6789;47.678;9.158;2022-09-09T17:30:39;96580.31;;;19.62;61.05
13434;BME280;6789;47.678;9.158;2022-09-09T17:35:49;96581.50;;;19.51;61.85
13434;BME280;6789;47.678;9.158;2022-09-09T17:41:13;96587.84;;;19.55;62.11
13434;BME280;6789;47.678;9.158;2022-09-09T17:46:37;96584.22;;;19.46;63.48
13434;BME280;6789;47.678;9.158;2022-09-09T17:51:44;96598.28;;;19.51;65.24
13434;BME280;6789;47.678;9.158;2022-09-09T17:56:52;96598.03;;;19.48;66.03
13434;BME280;6789;47.678;9.158;2022-09-09T18:01:58;96630.41;;;19.32;66.97
13434;BME280;6789;47.678;9.158;2022-09-09T18:07:09;96642.47;;;19.19;67.70
13434;BME280;6789;47.678;9.158;2022-09-09T18:12:16;96682.78;;;18.60;74.35
13434;BME280;6789;47.678;9.158;2022-09-09T18:17:23;96684.06;;;18.09;69.55
13434;BME280;6789;47.678;9.158;2022-09-09T18:22:32;96690.59;;;17.58;80.21
13434;BME280;6789;47.678;9.158;2022-09-09T18:27:48;96698.59;;;17.38;82.18
13434;BME280;6789;47.678;9.158;2022-09-09T18:32:54;96699.41;;;17.29;82.57
13434;BME280;6789;47.678;9.158;2022-09-09T18:38:00;96694.34;;;17.17;84.15
13434;BME280;6789;47.678;9.158;2022-09-09T18:43:07;96689.56;;;17.10;85.95
13434;BME280;6789;47.678;9.158;2022-09-09T18:48:13;96694.06;;;16.99;87.69
13434;BME280;6789;47.678;9.158;2022-09-09T18:53:18;96705.44;;;16.90;88.94
13434;BME280;6789;47.678;9.158;2022-09-09T18:58:28;96711.28;;;16.87;89.02
13434;BME280;6789;47.678;9.158;2022-09-09T19:03:37;96712.84;;;16.78;89.42
13434;BME280;6789;47.678;9.158;2022-09-09T19:08:46;96692.72;;;16.72;90.85
13434;BME280;6789;47.678;9.158;2022-09-09T19:13:58;96705.16;;;16.66;91.48
13434;BME280;6789;47.678;9.158;2022-09-09T19:19:13;96717.09;;;16.64;92.42
13434;BME280;6789;47.678;9.158;2022-09-09T19:24:58;96726.25;;;16.32;92.83
13434;BME280;6789;47.678;9.158;2022-09-09T19:30:29;96706.53;;;16.03;93.82
13434;BME280;6789;47.678;9.158;2022-09-09T19:35:35;96708.31;;;15.92;94.11
13434;BME280;6789;47.678;9.158;2022-09-09T19:40:41;96714.16;;;15.94;93.68
13434;BME280;6789;47.678;9.158;2022-09-09T19:46:05;96717.56;;;15.85;93.27
13434;BME280;6789;47.678;9.158;2022-09-09T19:51:20;96736.34;;;15.83;91.87
13434;BME280;6789;47.678;9.158;2022-09-09T19:56:32;96748.47;;;15.84;92.56
13434;BME280;6789;47.678;9.158;2022-09-09T20:01:41;96757.44;;;15.78;93.79
13434;BME280;6789;47.678;9.158;2022-09-09T20:06:59;96763.81;;;15.77;92.22
13434;BME280;6789;47.678;9.158;2022-09-09T20:12:06;96750.59;;;15.82;90.89
13434;BME280;6789;47.678;9.158;2022-09-09T20:17:12;96748.47;;;15.84;89.43
13434;BME280;6789;47.678;9.158;2022-09-09T20:22:22;96745.81;;;15.79;89.40
13434;BME280;6789;47.678;9.158;2022-09-09T20:28:26;96743.13;;;15.70;89.21
13434;BME280;6789;47.678;9.158;2022-09-09T20:33:34;96741.22;;;15.60;89.89
13434;BME280;6789;47.678;9.158;2022-09-09T20:38:50;96755.72;;;15.53;90.90
13434;BME280;6789;47.678;9.158;2022-09-09T20:44:16;96763.53;;;15.43;91.34
13434;BME280;6789;47.678;9.158;2022-09-09T20:49:41;96762.72;;;15.37;92.02
13434;BME280;6789;47.678;9.158;2022-09-09T20:54:47;96760.31;;;15.36;92.10
13434;BME280;6789;47.678;9.158;2022-09-09T21:00:05;96767.19;;;15.37;92.06
13434;BME280;6789;47.678;9.158;2022-09-09T21:05:16;96764.81;;;15.35;92.50
13434;BME280;6789;47.678;9.158;2022-09-09T21:10:24;96768.75;;;15.33;92.03
13434;BME280;6789;47.678;9.158;2022-09-09T21:15:35;96781.44;;;15.31;91.92
13434;BME280;6789;47.678;9.158;2022-09-09T21:20:45;96780.88;;;15.29;91.84
13434;BME280;6789;47.678;9.158;2022-09-09T21:25:52;96790.16;;;15.31;91.59
13434;BME280;6789;47.678;9.158;2022-09-09T21:31:15;96792.31;;;15.39;91.57
13434;BME280;6789;47.678;9.158;2022-09-09T21:36:43;96799.22;;;15.40;91.05
13434;BME280;6789;47.678;9.158;2022-09-09T21:41:51;96802.09;;;15.39;91.61
13434;BME280;6789;47.678;9.158;2022-09-09T21:47:04;96814.28;;;15.40;91.31
13434;BME280;6789;47.678;9.158;2022-09-09T21:52:10;96814.47;;;15.33;91.27
13434;BME280;6789;47.678;9.158;2022-09-09T21:57:25;96815.28;;;15.34;90.89
13434;BME280;6789;47.678;9.158;2022-09-09T22:02:35;96816.28;;;15.28;90.43
13434;BME280;6789;47.678;9.158;2022-09-09T22:07:53;96820.94;;;15.21;90.67
13434;BME280;6789;47.678;9.158;2022-09-09T22:13:00;96818.75;;;15.13;91.14
13434;BME280;6789;47.678;9.158;2022-09-09T22:18:07;96811.56;;;15.08;91.67
13434;BME280;6789;47.678;9.158;2022-09-09T22:23:15;96813.69;;;15.06;91.83
13434;BME280;6789;47.678;9.158;2022-09-09T22:28:22;96812.44;;;15.14;91.20
13434;BME280;6789;47.678;9.158;2022-09-09T22:33:31;96804.28;;;15.20;90.91
13434;BME280;6789;47.678;9.158;2022-09-09T22:38:38;96808.28;;;15.23;88.89
13434;BME280;6789;47.678;9.158;2022-09-09T22:43:46;96803.75;;;15.18;88.29
13434;BME280;6789;47.678;9.158;2022-09-09T22:48:53;96798.34;;;15.35;86.55
13434;BME280;6789;47.678;9.158;2022-09-09T22:53:59;96795.69;;;15.30;86.76
13434;BME280;6789;47.678;9.158;2022-09-09T22:59:06;96804.91;;;15.27;87.65
13434;BME280;6789;47.678;9.158;2022-09-09T23:04:13;96807.03;;;15.25;88.23
13434;BME280;6789;47.678;9.158;2022-09-09T23:09:27;96818.09;;;15.22;88.65
13434;BME280;6789;47.678;9.158;2022-09-09T23:14:37;96805.59;;;15.18;89.22
13434;BME280;6789;47.678;9.158;2022-09-09T23:19:53;96808.19;;;15.13;89.16
13434;BME280;6789;47.678;9.158;2022-09-09T23:25:05;96817.97;;;15.12;89.15
13434;BME280;6789;47.678;9.158;2022-09-09T23:30:21;96807.84;;;15.04;89.58
13434;BME280;6789;47.678;9.158;2022-09-09T23:35:35;96800.53;;;15.11;89.43
13434;BME280;6789;47.678;9.158;2022-09-09T23:40:44;96801.81;;;15.09;90.25
13434;BME280;6789;47.678;9.158;2022-09-09T23:45:53;96789.25;;;15.21;88.92
13434;BME280;6789;47.678;9.158;2022-09-09T23:51:02;96791.97;;;15.26;88.42
13434;BME280;6789;47.678;9.158;2022-09-09T23:56:08;96790.69;;;15.33;87.53
